Time;durP1;ratioP1;P1;durP2;ratioP2;P2;SDS_P1;SDS_P2;PMS_P1;PMS_P2;Temp;Humidity;BMP_temperature;BMP_pressure;BME280_temperature;BME280_humidity;BME280_pressure;Samples;Min_cycle;Max_cycle;Signal;HPM_P1;HPM_P2
2021/04/14 00:02:04;;;;;;;6.80;2.05;;;1.10;99.90;;;;;;5045331;28;20045;-71
2021/04/14 00:04:30;;;;;;;4.10;1.95;;;1.10;99.90;;;;;;5051589;28;20072;-71
2021/04/14 00:06:56;;;;;;;7.85;2.10;;;1.10;99.90;;;;;;5042612;28;20069;-70
2021/04/14 00:09:22;;;;;;;6.75;1.90;;;1.10;99.90;;;;;;5043292;28;20045;-71
2021/04/14 00:11:48;;;;;;;4.07;2.13;;;1.10;99.90;;;;;;5041948;28;20550;-71
2021/04/14 00:14:14;;;;;;;4.63;2.55;;;1.00;99.90;;;;;;5044919;28;20152;-71
2021/04/14 00:16:39;;;;;;;8.57;3.25;;;0.90;99.90;;;;;;5043679;28;20107;-71
2021/04/14 00:19:07;;;;;;;4.70;2.65;;;0.80;99.90;;;;;;5052116;28;20154;-71
2021/04/14 00:21:33;;;;;;;7.30;3.03;;;0.80;99.90;;;;;;5050607;28;20449;-71
2021/04/14 00:23:59;;;;;;;4.55;2.50;;;0.80;99.90;;;;;;5051248;28;20090;-71
2021/04/14 00:26:26;;;;;;;6.18;2.50;;;0.80;99.90;;;;;;5051375;28;20048;-71
2021/04/14 00:28:52;;;;;;;8.25;2.72;;;1.10;99.90;;;;;;5050172;28;20044;-71
2021/04/14 00:31:18;;;;;;;5.72;3.13;;;0.70;99.90;;;;;;5038544;28;20954;-71
2021/04/14 00:33:45;;;;;;;5.82;2.45;;;0.70;99.90;;;;;;5040768;28;20047;-71
2021/04/14 00:36:11;;;;;;;7.72;2.90;;;0.60;99.90;;;;;;5042842;28;20076;-71
2021/04/14 00:38:38;;;;;;;7.15;2.45;;;0.50;99.90;;;;;;5042155;28;20477;-71
2021/04/14 00:41:11;;;;;;;6.57;3.33;;;0.50;99.90;;;;;;5052172;28;20051;-71
2021/04/14 00:43:38;;;;;;;10.90;3.25;;;0.50;99.90;;;;;;5047805;28;20048;-71
2021/04/14 00:46:05;;;;;;;5.78;3.40;;;0.60;99.90;;;;;;5042490;28;20151;-71
2021/04/14 00:48:31;;;;;;;6.15;2.95;;;0.60;99.90;;;;;;5039579;28;20052;-71
2021/04/14 00:51:00;;;;;;;5.63;2.75;;;0.50;99.90;;;;;;5048772;28;20045;-71
2021/04/14 00:53:26;;;;;;;4.13;2.17;;;0.40;99.90;;;;;;5046352;28;20087;-71
2021/04/14 00:55:53;;;;;;;5.15;2.92;;;0.60;99.90;;;;;;5029582;28;20379;-71
2021/04/14 00:58:19;;;;;;;7.88;2.50;;;0.40;99.90;;;;;;5047174;28;20041;-71
2021/04/14 01:00:47;;;;;;;11.55;2.92;;;0.40;99.90;;;;;;5042132;28;20045;-71
2021/04/14 01:03:19;;;;;;;6.65;2.63;;;0.40;99.90;;;;;;5040274;28;20068;-70
2021/04/14 01:05:45;;;;;;;6.07;3.10;;;0.60;99.90;;;;;;5044078;28;20049;-70
2021/04/14 01:08:11;;;;;;;9.45;3.45;;;0.40;99.90;;;;;;5042825;28;20041;-71
2021/04/14 01:10:37;;;;;;;8.75;2.92;;;0.40;99.90;;;;;;5041723;28;20467;-71
2021/04/14 01:13:04;;;;;;;6.85;3.25;;;0.40;99.90;;;;;;5037949;28;20037;-71
2021/04/14 01:15:34;;;;;;;9.73;3.40;;;0.40;99.90;;;;;;5041110;28;20178;-71
2021/04/14 01:18:00;;;;;;;8.50;3.83;;;0.40;99.90;;;;;;5040063;28;20394;-71
2021/04/14 01:20:27;;;;;;;8.35;3.72;;;0.40;99.90;;;;;;5040563;28;20041;-71
2021/04/14 01:22:53;;;;;;;11.88;5.10;;;0.50;99.90;;;;;;5041329;28;20041;-70
2021/04/14 01:25:22;;;;;;;11.77;5.32;;;0.80;99.90;;;;;;5040235;28;20052;-70
2021/04/14 01:27:48;;;;;;;7.70;3.88;;;0.50;99.90;;;;;;5043126;28;20045;-71
2021/04/14 01:30:22;;;;;;;8.88;3.70;;;0.40;99.90;;;;;;5041605;28;20033;-71
2021/04/14 01:32:48;;;;;;;8.32;4.15;;;0.40;99.90;;;;;;5040994;28;20045;-71
2021/04/14 01:35:14;;;;;;;6.97;3.72;;;0.40;99.90;;;;;;5039549;28;20087;-71
2021/04/14 01:37:42;;;;;;;11.18;4.45;;;0.30;99.90;;;;;;5041354;28;20037;-71
2021/04/14 01:40:10;;;;;;;6.85;4.20;;;0.30;99.90;;;;;;5051602;28;20427;-71
2021/04/14 01:42:37;;;;;;;9.13;4.38;;;0.40;99.90;;;;;;5048864;28;20071;-71
2021/04/14 01:45:05;;;;;;;9.13;4.43;;;0.40;99.90;;;;;;5048672;28;20041;-71
2021/04/14 01:47:30;;;;;;;11.60;4.97;;;0.40;99.90;;;;;;5051188;28;20059;-70
2021/04/14 01:49:56;;;;;;;11.55;5.47;;;0.40;99.90;;;;;;5054688;28;20516;-71
2021/04/14 01:52:22;;;;;;;11.27;5.18;;;0.90;99.90;;;;;;5050529;28;20045;-71
2021/04/14 01:54:48;;;;;;;7.40;4.57;;;0.50;99.90;;;;;;5044646;28;20033;-71
2021/04/14 01:57:14;;;;;;;8.20;5.45;;;0.50;99.90;;;;;;5051085;28;20047;-71
2021/04/14 01:59:41;;;;;;;6.57;3.92;;;0.50;99.90;;;;;;5043442;28;20051;-70
2021/04/14 02:02:07;;;;;;;10.57;4.28;;;0.40;99.90;;;;;;5045397;28;20127;-71
2021/04/14 02:04:33;;;;;;;11.30;4.70;;;0.40;99.90;;;;;;5052868;28;20801;-71
2021/04/14 02:06:59;;;;;;;11.98;4.28;;;0.40;99.90;;;;;;5048501;28;20127;-71
2021/04/14 02:09:25;;;;;;;12.38;5.47;;;0.40;99.90;;;;;;5049421;28;20037;-71
2021/04/14 02:11:50;;;;;;;15.18;5.20;;;0.20;99.90;;;;;;5053837;28;20227;-71
2021/04/14 02:14:16;;;;;;;10.65;5.53;;;0.20;99.90;;;;;;5044340;28;20810;-71
2021/04/14 02:16:42;;;;;;;8.43;4.35;;;0.60;99.90;;;;;;5041499;28;20503;-71
2021/04/14 02:19:25;;;;;;;7.40;4.38;;;0.10;99.90;;;;;;5048114;28;20036;-71
2021/04/14 02:21:51;;;;;;;6.10;3.90;;;0.10;99.90;;;;;;5048367;28;20072;-71
2021/04/14 02:24:17;;;;;;;7.95;4.60;;;0.10;99.90;;;;;;5049656;28;20041;-71
2021/04/14 02:26:43;;;;;;;7.55;5.20;;;0.10;99.90;;;;;;5050544;28;20129;-70
2021/04/14 02:29:09;;;;;;;9.48;4.90;;;0.20;99.90;;;;;;5048692;28;20051;-70
2021/04/14 02:31:35;;;;;;;8.07;4.50;;;0.20;99.90;;;;;;5049388;28;20058;-71
2021/04/14 02:34:05;;;;;;;8.75;4.25;;;0.20;99.90;;;;;;5053127;28;20037;-71
2021/04/14 02:36:51;;;;;;;7.07;4.53;;;0.10;99.90;;;;;;5044893;28;20033;-71
2021/04/14 02:39:28;;;;;;;7.55;4.07;;;0.00;99.90;;;;;;5044319;28;20073;-71
2021/04/14 02:41:54;;;;;;;9.18;4.80;;;0.00;99.90;;;;;;5043977;28;20059;-71
2021/04/14 02:44:20;;;;;;;8.65;4.85;;;0.00;99.90;;;;;;5043260;28;20118;-71
2021/04/14 02:46:46;;;;;;;6.97;4.03;;;0.10;99.90;;;;;;5044606;28;20733;-71
2021/04/14 02:49:12;;;;;;;8.38;5.13;;;0.10;99.90;;;;;;5043546;28;20056;-71
2021/04/14 02:51:59;;;;;;;6.47;4.22;;;0.00;99.90;;;;;;5045314;28;20576;-71
2021/04/14 02:54:25;;;;;;;10.85;5.68;;;0.10;99.90;;;;;;5043640;28;20088;-71
2021/04/14 02:56:51;;;;;;;7.03;4.10;;;0.10;99.90;;;;;;5042392;28;20037;-71
2021/04/14 02:59:18;;;;;;;9.57;4.82;;;0.00;99.90;;;;;;5044587;28;20040;-70
2021/04/14 03:01:44;;;;;;;7.28;4.60;;;-0.10;99.90;;;;;;5044460;28;20037;-71
2021/04/14 03:04:10;;;;;;;7.30;4.25;;;0.10;99.90;;;;;;5044148;28;20102;-71
2021/04/14 03:06:56;;;;;;;5.90;4.07;;;-0.10;99.90;;;;;;5041684;28;20037;-71
2021/04/14 03:09:22;;;;;;;8.95;5.47;;;-0.10;99.90;;;;;;5042628;28;20056;-71
2021/04/14 03:11:47;;;;;;;8.10;4.80;;;-0.10;99.90;;;;;;5044570;28;20515;-71
2021/04/14 03:14:13;;;;;;;6.78;4.32;;;-0.20;99.90;;;;;;5042623;28;20088;-71
2021/04/14 03:16:39;;;;;;;8.30;4.97;;;-0.20;99.90;;;;;;5044158;28;21750;-71
2021/04/14 03:19:04;;;;;;;9.32;5.90;;;-0.20;99.90;;;;;;5042962;28;20071;-70
2021/04/14 03:21:30;;;;;;;9.68;5.07;;;-0.20;99.90;;;;;;5042101;28;20044;-71
2021/04/14 03:23:56;;;;;;;9.00;5.97;;;-0.10;99.90;;;;;;5043216;28;20044;-71
2021/04/14 03:26:23;;;;;;;10.00;5.65;;;-0.10;99.90;;;;;;5042299;28;20492;-71
2021/04/14 03:28:51;;;;;;;10.77;5.97;;;-0.10;99.90;;;;;;5043968;28;20041;-71
2021/04/14 03:31:37;;;;;;;13.25;5.32;;;0.10;99.90;;;;;;5043705;28;20049;-71
2021/04/14 03:34:22;;;;;;;12.60;5.60;;;0.00;99.90;;;;;;5041488;28;20056;-70
2021/04/14 03:36:49;;;;;;;9.57;5.38;;;0.10;99.90;;;;;;5040873;28;20049;-71
2021/04/14 03:39:34;;;;;;;12.75;5.72;;;0.10;99.90;;;;;;5044824;28;20049;-71
2021/04/14 03:42:00;;;;;;;11.90;5.55;;;0.10;99.90;;;;;;5041480;28;20049;-71
2021/04/14 03:44:32;;;;;;;9.70;4.68;;;0.20;99.90;;;;;;5043923;28;20056;-71
2021/04/14 03:46:58;;;;;;;12.00;4.47;;;0.20;99.90;;;;;;5040737;28;20051;-71
2021/04/14 03:49:24;;;;;;;7.70;5.15;;;0.20;99.90;;;;;;5047760;28;20044;-71
2021/04/14 03:51:50;;;;;;;8.77;5.50;;;0.30;99.90;;;;;;5028648;28;20136;-71
2021/04/14 03:54:16;;;;;;;12.10;4.90;;;0.20;99.90;;;;;;5047240;28;20041;-71
2021/04/14 03:56:51;;;;;;;7.47;4.65;;;0.30;99.90;;;;;;5048050;28;20052;-71
2021/04/14 03:59:17;;;;;;;7.63;4.82;;;0.20;99.90;;;;;;5046398;28;20045;-71
2021/04/14 04:01:43;;;;;;;8.27;5.18;;;0.50;99.90;;;;;;5042984;28;20044;-71
2021/04/14 04:04:10;;;;;;;9.05;4.07;;;0.30;99.90;;;;;;5043315;28;20151;-71
2021/04/14 04:06:36;;;;;;;6.30;4.22;;;0.30;99.90;;;;;;5051834;28;20037;-71
2021/04/14 04:09:22;;;;;;;9.90;4.55;;;0.20;99.90;;;;;;5036688;28;20052;-71
2021/04/14 04:11:48;;;;;;;6.38;3.95;;;0.10;99.90;;;;;;5049147;28;20045;-71
2021/04/14 04:14:13;;;;;;;9.48;3.97;;;0.10;99.90;;;;;;5050146;28;20551;-72
2021/04/14 04:16:42;;;;;;;11.15;5.13;;;0.00;99.90;;;;;;5052512;28;20039;-71
2021/04/14 04:19:10;;;;;;;7.65;3.75;;;0.00;99.90;;;;;;5050892;28;20041;-71
2021/04/14 04:21:35;;;;;;;7.07;4.22;;;0.00;99.90;;;;;;5051085;28;20039;-71
2021/04/14 04:24:01;;;;;;;7.70;3.35;;;0.10;99.90;;;;;;5049052;28;20344;-71
2021/04/14 04:26:28;;;;;;;10.85;3.78;;;0.00;99.90;;;;;;5055696;28;20482;-71
2021/04/14 04:29:14;;;;;;;;;;;0.00;99.90;;;;;;5066612;28;20070;-71
2021/04/14 04:31:39;;;;;;;9.75;4.43;;;0.00;99.90;;;;;;5052792;28;19924;-71
2021/04/14 04:34:25;;;;;;;9.52;4.45;;;0.00;99.90;;;;;;5056253;28;20053;-72
2021/04/14 04:36:53;;;;;;;9.18;3.58;;;0.00;99.90;;;;;;5057523;28;20040;-72
2021/04/14 04:39:20;;;;;;;6.75;4.07;;;0.10;99.90;;;;;;5051600;28;20065;-71
2021/04/14 04:41:47;;;;;;;11.07;4.70;;;0.10;99.90;;;;;;5049371;28;20040;-71
2021/04/14 04:44:14;;;;;;;11.45;4.78;;;0.10;99.90;;;;;;5050505;28;20053;-71
2021/04/14 04:46:43;;;;;;;7.95;5.75;;;0.20;99.90;;;;;;5051536;28;20114;-70
2021/04/14 04:49:09;;;;;;;14.88;6.30;;;0.20;99.90;;;;;;5052448;28;20076;-71
2021/04/14 04:51:35;;;;;;;13.70;5.45;;;0.20;99.90;;;;;;5050343;28;20045;-71
2021/04/14 04:54:01;;;;;;;6.93;5.10;;;0.30;99.90;;;;;;5052700;28;20049;-71
2021/04/14 04:56:27;;;;;;;11.77;6.22;;;0.30;99.90;;;;;;5055497;28;20092;-70
2021/04/14 04:58:52;;;;;;;8.65;5.07;;;0.40;99.90;;;;;;5058675;28;20052;-70
2021/04/14 05:01:21;;;;;;;10.05;5.03;;;0.60;99.90;;;;;;5062412;28;20410;-70
2021/04/14 05:03:50;;;;;;;8.35;4.82;;;0.50;99.90;;;;;;5057332;28;20043;-72
2021/04/14 05:06:15;;;;;;;14.23;5.38;;;0.50;99.90;;;;;;5057860;28;20098;-71
2021/04/14 05:08:41;;;;;;;9.80;4.82;;;0.60;99.90;;;;;;5057697;28;20033;-72
2021/04/14 05:11:07;;;;;;;10.55;4.82;;;0.60;99.90;;;;;;5055085;28;20037;-72
2021/04/14 05:13:32;;;;;;;9.18;4.47;;;0.60;99.90;;;;;;5052322;28;20052;-72
2021/04/14 05:15:58;;;;;;;8.85;4.13;;;0.60;99.90;;;;;;5049475;28;20044;-72
2021/04/14 05:18:24;;;;;;;11.45;6.20;;;0.70;99.90;;;;;;5057593;28;20532;-72
2021/04/14 05:20:49;;;;;;;8.98;4.78;;;0.70;99.90;;;;;;5052849;28;20048;-72
2021/04/14 05:23:15;;;;;;;8.38;4.10;;;0.90;99.90;;;;;;5062569;28;20140;-72
2021/04/14 05:25:44;;;;;;;7.03;3.55;;;1.70;99.90;;;;;;5057296;28;20545;-72
2021/04/14 05:28:13;;;;;;;5.70;3.45;;;2.70;99.90;;;;;;5054367;28;20089;-72
2021/04/14 05:30:39;;;;;;;5.65;3.13;;;3.40;99.20;;;;;;5058624;28;20073;-72
2021/04/14 05:33:07;;;;;;;4.80;2.92;;;4.40;97.70;;;;;;5056055;28;20040;-73
2021/04/14 05:35:40;;;;;;;8.85;3.60;;;5.70;95.70;;;;;;5059058;28;20040;-73
2021/04/14 05:38:07;;;;;;;5.70;2.78;;;7.10;91.60;;;;;;5058868;28;20399;-74
2021/04/14 05:40:33;;;;;;;4.63;2.50;;;7.80;90.00;;;;;;5054564;28;20044;-74
2021/04/14 05:43:24;;;;;;;5.00;2.45;;;9.30;86.80;;;;;;5054318;28;20037;-74
2021/04/14 05:45:59;;;;;;;5.63;3.08;;;10.40;78.40;;;;;;5060046;28;20020;-75
2021/04/14 05:48:26;;;;;;;4.88;2.13;;;11.20;69.70;;;;;;5056991;28;20045;-75
2021/04/14 05:50:55;;;;;;;6.20;2.42;;;11.80;68.80;;;;;;5054875;28;20041;-75
2021/04/14 05:53:21;;;;;;;3.50;2.40;;;12.90;64.20;;;;;;5055323;28;20049;-74
2021/04/14 05:55:47;;;;;;;3.35;1.92;;;13.30;59.40;;;;;;5052449;28;20142;-75
2021/04/14 05:58:13;;;;;;;6.88;2.83;;;13.60;58.40;;;;;;5049963;28;20045;-75
2021/04/14 06:00:39;;;;;;;9.40;2.72;;;13.70;56.70;;;;;;5052127;28;20116;-74
2021/04/14 06:03:05;;;;;;;10.93;2.28;;;14.90;54.40;;;;;;5054020;28;20055;-76
2021/04/14 06:05:31;;;;;;;5.32;2.40;;;15.80;52.60;;;;;;5055667;28;21621;-76
2021/04/14 06:07:57;;;;;;;6.13;2.30;;;16.50;50.20;;;;;;5055124;28;20044;-75
2021/04/14 06:10:25;;;;;;;7.57;2.22;;;17.10;47.70;;;;;;5053357;28;20498;-76
2021/04/14 06:12:55;;;;;;;3.75;2.10;;;17.60;46.60;;;;;;5053464;28;20044;-76
2021/04/14 06:15:28;;;;;;;4.13;2.88;;;18.30;45.00;;;;;;5054458;28;20153;-75
2021/04/14 06:17:53;;;;;;;3.35;2.50;;;18.60;43.70;;;;;;5053993;28;20060;-76
2021/04/14 06:20:21;;;;;;;5.03;2.30;;;18.90;43.20;;;;;;5055433;28;20549;-76
2021/04/14 06:22:47;;;;;;;2.75;2.20;;;19.20;42.20;;;;;;5055130;28;20053;-76
2021/04/14 06:25:16;;;;;;;5.72;2.72;;;19.50;41.20;;;;;;5058247;28;20064;-76
2021/04/14 06:27:55;;;;;;;4.53;2.30;;;19.80;40.50;;;;;;5057896;28;20063;-76
2021/04/14 06:30:22;;;;;;;4.43;2.55;;;20.00;40.10;;;;;;5065264;28;20041;-76
2021/04/14 06:32:49;;;;;;;5.15;2.80;;;20.20;39.00;;;;;;5058386;28;20124;-77
2021/04/14 06:35:16;;;;;;;3.63;2.40;;;20.50;38.90;;;;;;5053767;28;20523;-77
2021/04/14 06:38:05;;;;;;;4.40;2.60;;;20.80;38.90;;;;;;5053616;28;20049;-76
2021/04/14 06:44:13;;;;;;;2.03;1.58;;;21.40;37.80;;;;;;5047832;28;20329;-77
2021/04/14 06:46:41;;;;;;;2.58;0.90;;;20.90;37.70;;;;;;5041621;28;20060;-76
2021/04/14 06:49:32;;;;;;;2.03;0.80;;;20.40;38.00;;;;;;5049710;28;20140;-76
2021/04/14 06:52:12;;;;;;;2.88;0.73;;;20.90;36.80;;;;;;5052308;28;20044;-77
2021/04/14 06:55:11;;;;;;;1.85;0.85;;;21.10;37.10;;;;;;5049607;28;20479;-76
2021/04/14 06:57:46;;;;;;;3.05;0.60;;;20.50;36.80;;;;;;5050462;28;20045;-77
2021/04/14 07:00:24;;;;;;;6.33;1.17;;;19.90;37.70;;;;;;5049269;28;20068;-76
2021/04/14 07:03:01;;;;;;;5.28;0.80;;;18.80;40.40;;;;;;5050566;28;20521;-76
2021/04/14 07:05:37;;;;;;;4.47;1.02;;;17.70;42.90;;;;;;5049756;28;20060;-76
2021/04/14 07:08:08;;;;;;;1.20;0.50;;;16.60;45.80;;;;;;5049684;28;20143;-75
2021/04/14 07:10:50;;;;;;;4.20;0.77;;;16.10;47.70;;;;;;5050240;28;20044;-76
2021/04/14 07:13:16;;;;;;;3.15;0.65;;;15.40;49.20;;;;;;5047717;28;20656;-75
2021/04/14 07:15:43;;;;;;;2.47;0.50;;;15.10;50.30;;;;;;5050631;28;20040;-75
2021/04/14 07:18:42;;;;;;;1.95;0.70;;;14.60;50.60;;;;;;5049050;28;20044;-76
2021/04/14 07:21:22;;;;;;;1.92;0.70;;;14.20;51.60;;;;;;5048635;28;20972;-76
2021/04/14 07:24:00;;;;;;;2.75;0.68;;;13.70;52.50;;;;;;5048602;28;20059;-75
2021/04/14 07:26:53;;;;;;;3.95;0.65;;;13.50;55.00;;;;;;5049112;28;20067;-76
2021/04/14 07:29:33;;;;;;;5.40;0.65;;;13.10;56.80;;;;;;5041225;28;20124;-75
2021/04/14 07:32:30;;;;;;;2.70;0.75;;;13.20;54.60;;;;;;5050379;28;20491;-76
2021/04/14 07:35:02;;;;;;;3.53;0.90;;;12.90;57.10;;;;;;5047063;28;20119;-75
2021/04/14 07:37:35;;;;;;;3.97;0.90;;;12.70;58.50;;;;;;5049131;28;20048;-76
2021/04/14 07:40:17;;;;;;;3.78;0.63;;;12.50;59.70;;;;;;5047465;28;20116;-75
2021/04/14 07:43:28;;;;;;;6.65;1.00;;;12.30;60.30;;;;;;5047690;28;20060;-76
2021/04/14 07:45:55;;;;;;;2.90;0.63;;;12.20;60.80;;;;;;5047412;28;20463;-74
2021/04/14 07:48:27;;;;;;;2.47;1.00;;;12.20;61.80;;;;;;5048229;28;20071;-76
2021/04/14 07:50:59;;;;;;;2.28;1.00;;;12.20;60.50;;;;;;5049969;28;20060;-75
2021/04/14 07:53:36;;;;;;;4.47;0.90;;;12.20;62.90;;;;;;5052088;28;20040;-76
2021/04/14 07:56:16;;;;;;;3.70;1.50;;;12.20;62.50;;;;;;5049121;28;20032;-75
2021/04/14 07:58:42;;;;;;;3.05;0.82;;;12.30;62.80;;;;;;5045838;28;20691;-75
2021/04/14 08:01:22;;;;;;;2.38;0.70;;;12.30;62.80;;;;;;5046482;28;20092;-75
2021/04/14 08:03:50;;;;;;;7.28;2.42;;;12.40;61.40;;;;;;5046477;28;20052;-75
2021/04/14 08:06:28;;;;;;;2.50;0.90;;;12.50;62.10;;;;;;5045613;28;20040;-75
2021/04/14 08:08:54;;;;;;;3.55;0.90;;;12.40;60.60;;;;;;5045993;28;20044;-75
2021/04/14 08:11:30;;;;;;;5.55;1.02;;;12.60;61.50;;;;;;5045186;28;20055;-74
2021/04/14 08:14:23;;;;;;;4.63;0.63;;;12.60;61.30;;;;;;5051493;28;20049;-75
2021/04/14 08:16:52;;;;;;;3.47;1.35;;;12.50;60.80;;;;;;5047743;28;20474;-74
2021/04/14 08:19:18;;;;;;;4.90;0.90;;;12.70;60.50;;;;;;5047594;28;20064;-75
2021/04/14 08:22:02;;;;;;;4.15;0.75;;;12.80;59.00;;;;;;5044084;28;20064;-75
2021/04/14 08:24:39;;;;;;;4.93;0.80;;;12.90;60.20;;;;;;5053746;28;20732;-74
2021/04/14 08:27:19;;;;;;;3.92;0.70;;;13.10;61.30;;;;;;5052511;28;20047;-74
2021/04/14 08:30:15;;;;;;;6.07;1.23;;;13.10;59.90;;;;;;5050258;28;20390;-74
2021/04/14 08:32:52;;;;;;;7.33;0.80;;;12.70;53.40;;;;;;5049309;28;20037;-75
2021/04/14 08:35:40;;;;;;;2.05;0.55;;;12.60;60.00;;;;;;5041238;28;20041;-74
2021/04/14 08:38:24;;;;;;;8.65;0.85;;;12.50;61.60;;;;;;5046976;28;20136;-75
2021/04/14 08:40:57;;;;;;;3.13;0.60;;;12.60;60.00;;;;;;5046509;28;20128;-74
2021/04/14 08:43:27;;;;;;;2.33;0.57;;;12.40;58.90;;;;;;5050763;28;20043;-74
2021/04/14 08:45:54;;;;;;;4.35;0.60;;;12.20;61.20;;;;;;5052347;28;20506;-75
2021/04/14 08:48:26;;;;;;;9.20;0.70;;;11.60;59.30;;;;;;5063151;28;20033;-73
2021/04/14 08:50:56;;;;;;;5.22;0.90;;;11.00;59.80;;;;;;5049913;28;20041;-74
2021/04/14 08:53:32;;;;;;;6.15;0.60;;;10.80;59.20;;;;;;5038907;28;20068;-73
2021/04/14 08:55:59;;;;;;;5.15;1.20;;;10.80;60.00;;;;;;5039385;28;20041;-75
2021/04/14 08:58:25;;;;;;;5.82;0.52;;;11.20;62.60;;;;;;5039104;28;20044;-73
2021/04/14 09:00:50;;;;;;;5.22;0.47;;;11.50;63.00;;;;;;5039303;28;20487;-75
2021/04/14 09:03:23;;;;;;;3.38;0.43;;;11.60;61.10;;;;;;5039466;28;20102;-74
2021/04/14 09:05:49;;;;;;;4.35;0.70;;;11.40;59.70;;;;;;5039175;28;20044;-74
2021/04/14 09:08:25;;;;;;;5.13;0.85;;;11.20;61.10;;;;;;5040513;28;20105;-74
2021/04/14 09:10:57;;;;;;;3.88;0.65;;;10.90;62.00;;;;;;5045542;28;20037;-74
2021/04/14 09:13:46;;;;;;;1.67;0.30;;;10.80;63.40;;;;;;5048318;28;20045;-73
2021/04/14 09:16:24;;;;;;;7.75;1.23;;;10.90;64.20;;;;;;5049995;28;20119;-72
2021/04/14 09:18:50;;;;;;;5.05;0.60;;;10.80;60.70;;;;;;5046613;28;20045;-73
2021/04/14 09:21:20;;;;;;;4.85;0.93;;;10.90;61.80;;;;;;5047986;28;20120;-73
2021/04/14 09:24:03;;;;;;;2.08;0.22;;;10.80;62.60;;;;;;5039572;28;20132;-73
2021/04/14 09:26:40;;;;;;;4.13;0.60;;;10.60;59.90;;;;;;5036286;28;20708;-73
2021/04/14 09:29:33;;;;;;;3.20;0.43;;;10.80;63.40;;;;;;5037753;28;20049;-74
2021/04/14 09:32:08;;;;;;;4.85;0.63;;;11.10;57.20;;;;;;5028595;28;20093;-73
2021/04/14 09:34:38;;;;;;;3.30;0.60;;;11.00;58.40;;;;;;5039323;28;20040;-73
2021/04/14 09:37:23;;;;;;;6.50;0.30;;;11.40;65.00;;;;;;5038088;28;20044;-74
2021/04/14 09:39:50;;;;;;;4.30;0.50;;;11.70;65.50;;;;;;5041232;28;20044;-74
2021/04/14 09:42:23;;;;;;;2.08;0.30;;;11.20;57.50;;;;;;5045400;28;20048;-73
2021/04/14 09:44:53;;;;;;;4.68;1.02;;;11.00;61.80;;;;;;5043574;28;20060;-73
2021/04/14 09:47:28;;;;;;;5.47;0.40;;;10.90;61.40;;;;;;5041212;28;20063;-73
2021/04/14 09:49:57;;;;;;;3.83;0.60;;;10.80;63.00;;;;;;5045750;28;20537;-73
2021/04/14 09:52:28;;;;;;;6.13;0.40;;;10.70;63.80;;;;;;5040261;28;20048;-73
2021/04/14 09:55:32;;;;;;;3.33;0.40;;;10.20;65.40;;;;;;5044472;28;20064;-73
2021/04/14 09:58:06;;;;;;;3.92;0.40;;;9.70;72.50;;;;;;5042826;28;20037;-73
2021/04/14 10:00:32;;;;;;;4.65;0.50;;;9.40;71.70;;;;;;5041843;28;20037;-72
2021/04/14 10:03:08;;;;;;;3.72;0.50;;;9.40;73.80;;;;;;5043794;28;20041;-73
2021/04/14 10:05:34;;;;;;;4.70;0.73;;;8.80;74.90;;;;;;5041539;28;20040;-73
2021/04/14 10:08:03;;;;;;;6.32;0.95;;;8.70;77.90;;;;;;5044023;28;20068;-73
2021/04/14 10:10:29;;;;;;;5.18;0.68;;;8.60;77.20;;;;;;5049190;28;20048;-73
2021/04/14 10:12:57;;;;;;;3.67;0.40;;;8.80;77.80;;;;;;5051897;28;20029;-73
2021/04/14 10:15:34;;;;;;;3.08;0.40;;;8.50;75.50;;;;;;5050983;28;20079;-73
2021/04/14 10:18:19;;;;;;;6.05;0.47;;;8.50;72.50;;;;;;5048889;28;20033;-72
2021/04/14 10:20:45;;;;;;;3.60;0.40;;;8.40;72.50;;;;;;5047065;28;20036;-72
2021/04/14 10:23:15;;;;;;;4.00;0.50;;;8.30;75.10;;;;;;5045292;28;20052;-72
2021/04/14 10:25:42;;;;;;;1.25;0.30;;;8.30;75.40;;;;;;5037211;28;20505;-72
2021/04/14 10:28:13;;;;;;;4.03;0.60;;;8.40;75.20;;;;;;5042971;28;20115;-72
2021/04/14 10:30:44;;;;;;;3.40;0.25;;;8.50;78.10;;;;;;5044313;28;20044;-72
2021/04/14 10:33:22;;;;;;;3.30;0.22;;;8.60;74.70;;;;;;5051612;28;20052;-72
2021/04/14 10:35:50;;;;;;;3.03;0.43;;;8.70;76.20;;;;;;5054046;28;20047;-70
2021/04/14 10:38:34;;;;;;;2.67;0.20;;;8.90;72.90;;;;;;5062354;28;20465;-72
2021/04/14 10:41:28;;;;;;;2.95;0.30;;;9.20;67.20;;;;;;5050772;28;20068;-72
2021/04/14 10:43:54;;;;;;;4.07;0.60;;;9.60;74.50;;;;;;5056417;28;20037;-72
2021/04/14 10:46:32;;;;;;;2.22;0.20;;;10.00;70.80;;;;;;5052837;28;20101;-70
2021/04/14 10:49:11;;;;;;;2.33;0.50;;;10.40;70.70;;;;;;5052547;28;20041;-71
2021/04/14 10:51:45;;;;;;;2.95;0.55;;;10.80;66.80;;;;;;5055281;28;20064;-71
2021/04/14 10:54:15;;;;;;;1.30;0.20;;;11.10;59.50;;;;;;5062572;28;20105;-73
2021/04/14 10:56:43;;;;;;;2.75;0.30;;;11.10;64.70;;;;;;5056178;28;21086;-71
2021/04/14 10:59:15;;;;;;;0.80;0.30;;;11.20;59.70;;;;;;5055424;28;20072;-72
2021/04/14 11:01:45;;;;;;;5.85;0.50;;;11.40;61.90;;;;;;5057737;28;20051;-71
2021/04/14 11:04:17;;;;;;;1.75;0.30;;;11.70;66.30;;;;;;5054328;28;20691;-72
2021/04/14 11:06:46;;;;;;;9.98;0.60;;;12.00;74.10;;;;;;5060189;28;20029;-73
2021/04/14 11:09:13;;;;;;;1.75;0.40;;;12.20;71.70;;;;;;5058258;28;20186;-72
2021/04/14 11:11:41;;;;;;;4.82;0.32;;;12.30;71.20;;;;;;5064902;28;20045;-73
2021/04/14 11:14:09;;;;;;;3.65;1.02;;;12.00;69.70;;;;;;5063172;28;20076;-73
2021/04/14 11:16:40;;;;;;;1.80;0.25;;;12.00;74.20;;;;;;5061961;28;20032;-73
2021/04/14 11:19:21;;;;;;;3.53;0.30;;;11.60;69.20;;;;;;5060076;28;20055;-73
2021/04/14 11:21:59;;;;;;;1.35;0.20;;;11.20;64.20;;;;;;5062295;28;20045;-71
2021/04/14 11:24:24;;;;;;;2.60;0.20;;;11.00;66.80;;;;;;5056015;28;20052;-72
2021/04/14 11:26:56;;;;;;;2.83;0.10;;;10.90;68.80;;;;;;5061856;28;20041;-72
2021/04/14 11:29:25;;;;;;;2.15;0.30;;;11.10;70.00;;;;;;5057972;28;20049;-72
2021/04/14 11:31:53;;;;;;;1.70;0.20;;;11.50;70.40;;;;;;5058675;28;20044;-73
2021/04/14 11:34:34;;;;;;;1.45;0.20;;;11.90;72.70;;;;;;5059506;28;20048;-72
2021/04/14 11:37:03;;;;;;;1.67;0.20;;;11.80;65.80;;;;;;5060646;28;20029;-73
2021/04/14 11:39:49;;;;;;;2.25;0.30;;;11.40;68.40;;;;;;5057820;28;20056;-72
2021/04/14 11:42:17;;;;;;;3.13;0.40;;;11.10;69.20;;;;;;5055873;28;20069;-73
2021/04/14 11:44:56;;;;;;;3.55;0.30;;;10.80;74.70;;;;;;5055310;28;20120;-72
2021/04/14 11:47:33;;;;;;;1.88;0.30;;;10.30;72.90;;;;;;5049506;28;20041;-71
2021/04/14 11:50:21;;;;;;;2.35;0.30;;;10.10;73.50;;;;;;5050745;28;20133;-72
2021/04/14 11:52:54;;;;;;;4.05;0.25;;;9.80;71.30;;;;;;5053106;28;20048;-73
2021/04/14 11:55:19;;;;;;;3.78;0.20;;;9.70;68.80;;;;;;5053827;28;20056;-73
2021/04/14 11:57:50;;;;;;;2.33;0.30;;;9.70;73.60;;;;;;5059338;28;20041;-71
2021/04/14 12:00:38;;;;;;;1.20;0.20;;;9.80;74.20;;;;;;5051005;28;20426;-73
2021/04/14 12:03:18;;;;;;;2.22;1.08;;;9.90;72.90;;;;;;5059052;28;20100;-72
2021/04/14 12:05:45;;;;;;;2.17;0.20;;;10.10;71.40;;;;;;5054965;28;20045;-72
2021/04/14 12:08:11;;;;;;;4.32;0.45;;;10.20;70.00;;;;;;5053555;28;20052;-71
2021/04/14 12:10:37;;;;;;;2.78;0.45;;;10.40;68.40;;;;;;5057392;28;20041;-73
2021/04/14 12:13:03;;;;;;;1.33;0.30;;;10.30;71.00;;;;;;5055297;28;20041;-70
2021/04/14 12:15:29;;;;;;;1.92;0.30;;;10.50;70.70;;;;;;5056622;28;20040;-73
2021/04/14 12:17:55;;;;;;;1.45;0.40;;;10.60;70.30;;;;;;5054929;28;20033;-73
2021/04/14 12:20:22;;;;;;;2.08;0.30;;;10.80;69.30;;;;;;5057687;28;20098;-69
2021/04/14 12:22:48;;;;;;;4.47;0.82;;;10.90;69.30;;;;;;5053738;28;20041;-74
2021/04/14 12:25:14;;;;;;;4.68;0.30;;;11.10;70.00;;;;;;5061346;28;20045;-75
2021/04/14 12:27:40;;;;;;;2.25;0.40;;;11.00;67.90;;;;;;5058339;28;20041;-72
2021/04/14 12:30:07;;;;;;;3.17;0.52;;;11.00;69.80;;;;;;5053178;28;20546;-74
2021/04/14 12:32:33;;;;;;;5.45;0.55;;;10.80;71.50;;;;;;5054028;28;20120;-73
2021/04/14 12:35:00;;;;;;;3.45;0.30;;;10.60;72.80;;;;;;5051279;28;20080;-73
2021/04/14 12:37:26;;;;;;;5.57;0.30;;;10.40;69.20;;;;;;5053277;28;20090;-73
2021/04/14 12:39:52;;;;;;;1.75;0.30;;;10.20;73.60;;;;;;5053737;28;20049;-74
2021/04/14 12:42:18;;;;;;;6.60;0.40;;;10.00;72.40;;;;;;5051937;28;20075;-71
2021/04/14 12:44:44;;;;;;;3.55;0.40;;;9.90;74.40;;;;;;5051820;28;20545;-78
2021/04/14 12:47:15;;;;;;;2.58;0.28;;;10.00;76.20;;;;;;5051804;28;20102;-73
2021/04/14 12:49:42;;;;;;;2.17;0.40;;;10.40;82.60;;;;;;5050464;28;20074;-75
2021/04/14 12:52:22;;;;;;;2.80;0.50;;;10.80;80.70;;;;;;5050352;28;20021;-73
2021/04/14 12:54:49;;;;;;;2.42;0.40;;;11.20;76.40;;;;;;5053601;28;20036;-78
2021/04/14 12:57:22;;;;;;;1.13;0.38;;;11.50;74.10;;;;;;5055179;28;20041;-79
2021/04/14 12:59:53;;;;;;;4.38;0.40;;;11.50;73.90;;;;;;5056196;28;20041;-79
2021/04/14 13:02:30;;;;;;;1.90;0.38;;;11.30;73.00;;;;;;5055012;28;20037;-78
2021/04/14 13:05:08;;;;;;;4.32;0.30;;;10.90;69.30;;;;;;5052238;28;20038;-73
2021/04/14 13:07:47;;;;;;;2.45;0.30;;;10.60;70.60;;;;;;5052922;28;20041;-73
2021/04/14 13:10:14;;;;;;;3.40;0.28;;;10.40;77.00;;;;;;5053055;28;20067;-74
2021/04/14 13:12:40;;;;;;;9.95;0.38;;;10.20;76.50;;;;;;5051533;28;20487;-74
2021/04/14 13:15:12;;;;;;;6.15;0.30;;;10.00;77.80;;;;;;5050694;28;20037;-74